createdAt,value
2022-10-25T00:01:28.718Z,98488.97
2022-10-25T00:03:56.438Z,98486.91
2022-10-25T00:06:24.295Z,98484.91
2022-10-25T00:08:52.048Z,98486.47
2022-10-25T00:11:27.756Z,98489.25
2022-10-25T00:13:57.004Z,98489.84
2022-10-25T00:16:27.149Z,98485.56
2022-10-25T00:18:54.652Z,98484.19
2022-10-25T00:21:22.237Z,98486.91
2022-10-25T00:23:50.429Z,98486.25
2022-10-25T00:26:17.829Z,98481.78
2022-10-25T00:28:45.632Z,98490.13
2022-10-25T00:31:15.086Z,98487.97
2022-10-25T00:33:43.272Z,98491.47
2022-10-25T00:36:22.494Z,98495.06
2022-10-25T00:38:50.204Z,98492.81
2022-10-25T00:41:20.460Z,98499.41
2022-10-25T00:43:52.935Z,98496.75
2022-10-25T00:46:23.536Z,98490.03
2022-10-25T00:49:13.181Z,98487.03
2022-10-25T00:51:56.000Z,98492.88
2022-10-25T00:54:33.253Z,98493.06
2022-10-25T00:57:10.572Z,98495.97
2022-10-25T00:59:38.438Z,98502.06
2022-10-25T01:02:06.000Z,98492.88
2022-10-25T01:04:34.119Z,98496.34
2022-10-25T01:07:02.366Z,98499.88
2022-10-25T01:09:32.092Z,98496.22
2022-10-25T01:11:59.488Z,98502.00
2022-10-25T01:14:27.345Z,98505.38
2022-10-25T01:17:13.319Z,98502.28
2022-10-25T01:19:59.433Z,98502.28
2022-10-25T01:23:00.209Z,98497.09
2022-10-25T01:25:39.507Z,98501.16
2022-10-25T01:28:08.444Z,98502.47
2022-10-25T01:30:56.876Z,98493.50
2022-10-25T01:33:28.285Z,98497.16
2022-10-25T01:36:02.825Z,98496.34
2022-10-25T01:38:39.593Z,98493.50
2022-10-25T01:41:09.819Z,98483.38
2022-10-25T01:43:40.469Z,98490.31
2022-10-25T01:46:29.457Z,98496.84
2022-10-25T01:49:01.859Z,98493.59
2022-10-25T01:51:29.252Z,98499.63
2022-10-25T01:53:56.708Z,98496.25
2022-10-25T01:56:39.396Z,98499.06
2022-10-25T01:59:47.205Z,98494.03
2022-10-25T02:02:19.753Z,98502.00
2022-10-25T02:05:23.225Z,98498.34
2022-10-25T02:08:00.662Z,98503.19
2022-10-25T02:10:57.570Z,98500.47
2022-10-25T02:13:47.454Z,98505.94
2022-10-25T02:16:19.838Z,98512.91
2022-10-25T02:18:50.187Z,98509.88
2022-10-25T02:21:18.644Z,98498.75
2022-10-25T02:23:46.634Z,98496.75
2022-10-25T02:26:15.305Z,98490.56
2022-10-25T02:28:42.837Z,98495.47
2022-10-25T02:31:14.446Z,98497.28
2022-10-25T02:33:43.796Z,98493.56
2022-10-25T02:36:23.171Z,98493.53
2022-10-25T02:38:52.302Z,98495.06
2022-10-25T02:41:20.833Z,98491.72
2022-10-25T02:43:48.310Z,98494.91
2022-10-25T02:46:18.377Z,98494.56
2022-10-25T02:48:47.133Z,98495.94
2022-10-25T02:51:14.716Z,98495.72
2022-10-25T02:53:42.086Z,98491.69
2022-10-25T02:56:15.077Z,98491.16
2022-10-25T02:58:43.903Z,98482.47
2022-10-25T03:01:12.477Z,98483.13
2022-10-25T03:03:40.404Z,98487.38
2022-10-25T03:06:08.844Z,98485.38
2022-10-25T03:08:36.596Z,98478.31
2022-10-25T03:11:04.403Z,98482.84
2022-10-25T03:13:31.787Z,98490.00
2022-10-25T03:15:59.176Z,98486.31
2022-10-25T03:18:26.518Z,98484.66
2022-10-25T03:21:00.492Z,98487.25
2022-10-25T03:23:28.516Z,98489.81
2022-10-25T03:25:57.472Z,98484.88
2022-10-25T03:28:27.441Z,98491.28
2022-10-25T03:30:55.481Z,98493.38
2022-10-25T03:33:23.160Z,98494.91
2022-10-25T03:35:51.853Z,98498.34
2022-10-25T03:38:19.189Z,98497.50
2022-10-25T03:40:46.810Z,98497.38
2022-10-25T03:43:14.355Z,98503.94
2022-10-25T03:45:41.705Z,98497.81
2022-10-25T03:48:09.098Z,98498.88
2022-10-25T03:50:36.399Z,98503.22
2022-10-25T03:53:04.969Z,98500.34
2022-10-25T03:55:32.802Z,98511.50
2022-10-25T03:58:00.388Z,98510.53
2022-10-25T04:00:28.308Z,98504.22
2022-10-25T04:03:00.952Z,98511.94
2022-10-25T04:05:30.812Z,98505.56
2022-10-25T04:07:58.528Z,98517.44
2022-10-25T04:10:26.012Z,98513.41
2022-10-25T04:12:54.493Z,98513.69
2022-10-25T04:15:22.805Z,98514.66
2022-10-25T04:17:51.437Z,98513.75
2022-10-25T04:20:19.411Z,98519.63
2022-10-25T04:22:52.434Z,98520.63
2022-10-25T04:25:19.784Z,98520.84
2022-10-25T04:27:47.468Z,98521.81
2022-10-25T04:30:15.125Z,98512.69
2022-10-25T04:32:42.447Z,98510.00
2022-10-25T04:35:10.351Z,98506.66
2022-10-25T04:37:37.682Z,98515.19
2022-10-25T04:40:05.871Z,98519.16
2022-10-25T04:42:34.441Z,98525.56
2022-10-25T04:45:01.919Z,98530.97
2022-10-25T04:47:33.210Z,98530.53
2022-10-25T04:50:00.740Z,98527.13
2022-10-25T04:52:29.862Z,98529.44
2022-10-25T04:54:57.638Z,98533.69
2022-10-25T04:57:25.862Z,98534.63
2022-10-25T04:59:53.327Z,98534.84
2022-10-25T05:02:20.930Z,98529.97
2022-10-25T05:04:48.294Z,98539.84
2022-10-25T05:07:19.394Z,98539.63
2022-10-25T05:09:47.625Z,98543.38
2022-10-25T05:12:15.691Z,98538.19
2022-10-25T05:14:43.975Z,98544.59
2022-10-25T05:17:11.360Z,98537.09
2022-10-25T05:19:38.650Z,98544.91
2022-10-25T05:22:06.040Z,98549.81
2022-10-25T05:24:33.458Z,98552.31
2022-10-25T05:27:00.804Z,98554.31
2022-10-25T05:29:28.151Z,98553.16
2022-10-25T05:31:55.542Z,98548.94
2022-10-25T05:34:22.928Z,98547.84
2022-10-25T05:36:50.230Z,98547.44
2022-10-25T05:39:17.545Z,98547.16
2022-10-25T05:41:44.933Z,98549.88
2022-10-25T05:44:12.290Z,98552.06
2022-10-25T05:46:39.570Z,98550.38
2022-10-25T05:49:06.878Z,98545.25
2022-10-25T05:51:35.638Z,98559.47
2022-10-25T05:54:12.356Z,98551.34
2022-10-25T05:56:40.643Z,98557.81
2022-10-25T05:59:13.295Z,98564.47
2022-10-25T06:01:49.693Z,98568.22
2022-10-25T06:04:17.834Z,98569.34
2022-10-25T06:06:46.645Z,98566.94
2022-10-25T06:09:14.380Z,98566.13
2022-10-25T06:11:41.877Z,98570.13
2022-10-25T06:14:10.944Z,98574.97
2022-10-25T06:16:38.831Z,98577.03
2022-10-25T06:19:06.454Z,98580.06
2022-10-25T06:21:33.772Z,98579.59
2022-10-25T06:24:01.102Z,98586.63
2022-10-25T06:26:30.017Z,98587.94
2022-10-25T06:29:02.125Z,98598.47
2022-10-25T06:31:30.383Z,98598.66
2022-10-25T06:34:00.272Z,98603.41
2022-10-25T06:36:28.040Z,98615.44
2022-10-25T06:38:55.424Z,98613.72
2022-10-25T06:41:25.628Z,98611.84
2022-10-25T06:43:52.949Z,98619.13
2022-10-25T06:46:23.442Z,98615.94
2022-10-25T06:48:51.971Z,98624.41
2022-10-25T06:51:19.737Z,98626.19
2022-10-25T06:53:47.264Z,98621.97
2022-10-25T06:56:15.275Z,98627.44
2022-10-25T06:58:43.105Z,98629.31
2022-10-25T07:01:15.410Z,98627.47
2022-10-25T07:03:43.432Z,98633.13
2022-10-25T07:06:13.399Z,98634.66
2022-10-25T07:08:42.849Z,98630.28
2022-10-25T07:11:16.400Z,98633.00
2022-10-25T07:13:43.904Z,98639.56
2022-10-25T07:16:13.144Z,98647.16
2022-10-25T07:18:40.706Z,98648.94
2022-10-25T07:21:12.334Z,98640.91
2022-10-25T07:23:43.054Z,98645.69
2022-10-25T07:26:14.296Z,98638.50
2022-10-25T07:28:42.590Z,98644.81
2022-10-25T07:31:13.235Z,98637.44
2022-10-25T07:33:40.627Z,98644.09
2022-10-25T07:36:12.000Z,98658.03
2022-10-25T07:38:39.674Z,98649.00
2022-10-25T07:41:07.802Z,98658.94
2022-10-25T07:43:35.204Z,98654.75
2022-10-25T07:46:02.628Z,98650.47
2022-10-25T07:48:29.957Z,98661.50
2022-10-25T07:50:57.321Z,98662.66
2022-10-25T07:53:24.641Z,98660.53
2022-10-25T07:55:54.072Z,98662.00
2022-10-25T07:58:21.520Z,98666.63
2022-10-25T08:00:49.176Z,98663.41
2022-10-25T08:03:17.853Z,98660.88
2022-10-25T08:05:46.952Z,98655.09
2022-10-25T08:08:15.067Z,98625.84
2022-10-25T08:10:43.737Z,98593.75
2022-10-25T08:13:11.601Z,98591.84
2022-10-25T08:15:40.907Z,98609.25
2022-10-25T08:18:09.717Z,98615.66
2022-10-25T08:21:00.506Z,98626.34
2022-10-25T08:23:25.369Z,98617.53
2022-10-25T08:25:53.145Z,98621.97
2022-10-25T08:28:20.701Z,98619.75
2022-10-25T08:30:48.073Z,98628.28
2022-10-25T08:33:15.443Z,98634.56
2022-10-25T08:35:42.751Z,98639.16
2022-10-25T08:38:10.065Z,98630.09
2022-10-25T08:40:51.765Z,98637.56
2022-10-25T08:43:27.973Z,98632.06
2022-10-25T08:45:58.743Z,98637.78
2022-10-25T08:48:33.216Z,98642.41
2022-10-25T08:51:04.869Z,98643.25
2022-10-25T08:53:36.918Z,98647.91
2022-10-25T08:56:16.516Z,98648.44
2022-10-25T08:58:54.234Z,98648.63
2022-10-25T09:01:39.028Z,98647.44
2022-10-25T09:04:06.597Z,98638.78
2022-10-25T09:06:47.844Z,98635.16
2022-10-25T09:09:27.178Z,98640.84
2022-10-25T09:12:02.545Z,98640.72
2022-10-25T09:14:49.637Z,98648.38
2022-10-25T09:17:16.887Z,98643.25
2022-10-25T09:20:06.741Z,98643.59
2022-10-25T09:22:49.716Z,98646.06
2022-10-25T09:25:16.970Z,98645.16
2022-10-25T09:28:08.700Z,98651.25
2022-10-25T09:30:39.277Z,98654.56
2022-10-25T09:33:11.114Z,98649.88
2022-10-25T09:35:45.626Z,98654.59
2022-10-25T09:38:23.809Z,98649.03
2022-10-25T09:41:08.977Z,98646.66
2022-10-25T09:43:39.684Z,98645.34
2022-10-25T09:46:12.645Z,98645.25
2022-10-25T09:49:07.146Z,98649.44
2022-10-25T09:51:46.831Z,98648.66
2022-10-25T09:54:28.974Z,98650.66
2022-10-25T09:56:56.306Z,98650.91
2022-10-25T09:59:23.594Z,98650.75
2022-10-25T10:01:51.108Z,98650.66
2022-10-25T10:04:32.405Z,98642.78
2022-10-25T10:07:22.623Z,98644.50
2022-10-25T10:09:51.825Z,98645.34
2022-10-25T10:12:24.243Z,98654.91
2022-10-25T10:15:23.051Z,98654.19
2022-10-25T10:18:19.439Z,98648.00
2022-10-25T10:21:07.129Z,98653.63
2022-10-25T10:23:45.280Z,98652.16
2022-10-25T10:26:22.667Z,98650.81
2022-10-25T10:29:17.443Z,98651.47
2022-10-25T10:31:51.247Z,98647.06
2022-10-25T10:34:31.557Z,98640.97
2022-10-25T10:37:02.810Z,98642.56
2022-10-25T10:39:30.166Z,98639.41
2022-10-25T10:42:05.802Z,98637.25
2022-10-25T10:44:34.781Z,98621.88
2022-10-25T10:47:15.217Z,98621.28
2022-10-25T10:49:43.107Z,98611.50
2022-10-25T10:52:39.709Z,98622.75
2022-10-25T10:55:18.094Z,98613.19
2022-10-25T10:57:46.031Z,98611.75
2022-10-25T11:00:28.085Z,98609.88
2022-10-25T11:05:28.850Z,98613.56
2022-10-25T11:07:57.934Z,98605.53
2022-10-25T11:10:27.229Z,98603.31
2022-10-25T11:13:14.949Z,98594.06
2022-10-25T11:15:54.171Z,98600.91
2022-10-25T11:18:41.822Z,98610.66
2022-10-25T11:21:27.784Z,98603.75
2022-10-25T11:24:15.744Z,98600.25
2022-10-25T11:26:58.233Z,98604.00
2022-10-25T11:29:41.606Z,98614.78
2022-10-25T11:32:47.670Z,98600.19
2022-10-25T11:35:51.352Z,98602.88
2022-10-25T11:38:36.653Z,98597.81
2022-10-25T11:41:06.553Z,98587.94
2022-10-25T11:44:02.396Z,98598.66
2022-10-25T11:47:04.919Z,98595.94
2022-10-25T11:49:41.772Z,98594.47
2022-10-25T11:52:24.067Z,98592.09
2022-10-25T11:54:57.496Z,98586.34
2022-10-25T11:57:42.471Z,98590.97
2022-10-25T12:00:24.473Z,98595.22
2022-10-25T12:03:30.299Z,98590.25
2022-10-25T12:06:00.303Z,98594.69
2022-10-25T12:08:53.509Z,98592.66
2022-10-25T12:11:38.196Z,98588.19
2022-10-25T12:14:09.800Z,98589.00
2022-10-25T12:16:37.828Z,98589.09
2022-10-25T12:19:24.193Z,98588.34
2022-10-25T12:22:01.594Z,98601.03
2022-10-25T12:24:48.161Z,98588.22
2022-10-25T12:27:18.321Z,98592.13
2022-10-25T12:29:56.155Z,98590.97
2022-10-25T12:32:36.277Z,98590.91
2022-10-25T12:35:07.113Z,98588.50
2022-10-25T12:37:38.172Z,98592.59
2022-10-25T12:40:07.326Z,98583.53
2022-10-25T12:42:45.228Z,98580.94
2022-10-25T12:45:33.393Z,98576.50
2022-10-25T12:48:23.887Z,98571.53
2022-10-25T12:50:53.454Z,98562.63
2022-10-25T12:53:57.418Z,98566.03
2022-10-25T12:56:31.971Z,98563.56
2022-10-25T12:59:13.464Z,98558.50
2022-10-25T13:01:54.501Z,98548.78
2022-10-25T13:04:48.781Z,98549.91
2022-10-25T13:07:17.320Z,98546.25
2022-10-25T13:09:44.471Z,98554.00
2022-10-25T13:12:30.580Z,98556.00
2022-10-25T13:14:59.018Z,98556.28
2022-10-25T13:17:25.871Z,98550.13
2022-10-25T13:19:55.939Z,98554.84
2022-10-25T13:22:35.813Z,98558.44
2022-10-25T13:25:08.753Z,98556.72
2022-10-25T13:27:36.941Z,98559.03
2022-10-25T13:30:06.866Z,98557.59
2022-10-25T13:32:39.428Z,98560.06
2022-10-25T13:35:22.106Z,98550.72
2022-10-25T13:37:52.897Z,98541.66
2022-10-25T13:40:30.081Z,98549.66
2022-10-25T13:43:18.214Z,98553.97
2022-10-25T13:45:53.650Z,98548.50
2022-10-25T13:48:35.606Z,98558.25
2022-10-25T13:51:16.709Z,98553.97
2022-10-25T13:53:51.649Z,98552.25
2022-10-25T13:56:36.010Z,98545.78
2022-10-25T13:59:03.102Z,98546.50
2022-10-25T14:01:31.272Z,98544.56
2022-10-25T14:04:37.819Z,98549.78
2022-10-25T14:07:44.524Z,98539.84
2022-10-25T14:10:24.531Z,98543.63
2022-10-25T14:12:57.358Z,98545.25
2022-10-25T14:15:41.587Z,98552.59
2022-10-25T14:18:17.595Z,98544.63
2022-10-25T14:20:56.247Z,98538.78
2022-10-25T14:23:30.303Z,98530.13
2022-10-25T14:26:00.148Z,98526.28
2022-10-25T14:28:33.552Z,98533.97
2022-10-25T14:31:08.352Z,98528.13
2022-10-25T14:33:54.064Z,98531.16
2022-10-25T14:36:32.473Z,98540.84
2022-10-25T14:39:03.934Z,98529.44
2022-10-25T14:41:36.141Z,98533.28
2022-10-25T14:44:04.259Z,98530.75
2022-10-25T14:46:31.730Z,98529.78
2022-10-25T14:49:01.368Z,98521.44
2022-10-25T14:51:33.987Z,98519.59
2022-10-25T14:54:24.245Z,98513.41
2022-10-25T14:57:06.199Z,98520.09
2022-10-25T14:59:48.812Z,98515.91
2022-10-25T15:02:37.471Z,98515.06
2022-10-25T15:05:06.320Z,98523.94
2022-10-25T15:07:42.519Z,98514.91
2022-10-25T15:10:41.469Z,98508.88
2022-10-25T15:13:20.532Z,98504.88
2022-10-25T15:15:50.804Z,98515.72
2022-10-25T15:18:35.813Z,98508.69
2022-10-25T15:21:17.352Z,98512.66
2022-10-25T15:24:24.021Z,98505.47
2022-10-25T15:27:03.238Z,98506.97
2022-10-25T15:29:42.021Z,98502.13
2022-10-25T15:32:27.586Z,98501.09
2022-10-25T15:35:02.079Z,98497.00
2022-10-25T15:37:30.871Z,98497.47
2022-10-25T15:39:58.329Z,98502.38
2022-10-25T15:42:26.655Z,98496.66
2022-10-25T15:44:53.718Z,98500.00
2022-10-25T15:47:30.939Z,98489.56
2022-10-25T15:49:59.062Z,98487.69
2022-10-25T15:52:26.300Z,98481.25
2022-10-25T15:54:53.605Z,98480.81
2022-10-25T15:57:20.887Z,98472.66
2022-10-25T15:59:47.876Z,98472.25
2022-10-25T16:02:22.372Z,98480.22
2022-10-25T16:04:49.369Z,98481.91
2022-10-25T16:07:16.556Z,98483.78
2022-10-25T16:09:43.960Z,98473.66
2022-10-25T16:12:20.791Z,98474.81
2022-10-25T16:14:49.735Z,98474.13
2022-10-25T16:17:16.678Z,98473.13
2022-10-25T16:19:43.758Z,98473.78
2022-10-25T16:22:10.766Z,98466.34
2022-10-25T16:24:37.925Z,98465.63
2022-10-25T16:27:04.967Z,98470.84
2022-10-25T16:29:32.021Z,98470.75
2022-10-25T16:31:59.162Z,98466.88
2022-10-25T16:34:26.106Z,98462.41
2022-10-25T16:36:53.878Z,98458.19
2022-10-25T16:39:20.900Z,98466.13
2022-10-25T16:41:48.580Z,98461.81
2022-10-25T16:44:18.849Z,98467.13
2022-10-25T16:46:46.538Z,98459.72
2022-10-25T16:49:13.812Z,98473.91
2022-10-25T16:51:40.946Z,98470.38
2022-10-25T16:54:08.441Z,98455.16
2022-10-25T16:56:35.740Z,98459.75
2022-10-25T16:59:03.332Z,98453.06
2022-10-25T17:01:35.113Z,98464.31
2022-10-25T17:04:04.259Z,98461.44
2022-10-25T17:06:46.968Z,98455.78
2022-10-25T17:09:13.915Z,98459.16
2022-10-25T17:11:41.198Z,98452.78
2022-10-25T17:14:12.516Z,98455.84
2022-10-25T17:16:42.814Z,98451.66
2022-10-25T17:19:10.891Z,98462.56
2022-10-25T17:21:38.321Z,98452.88
2022-10-25T17:24:06.622Z,98448.53
2022-10-25T17:26:33.571Z,98449.06
2022-10-25T17:29:00.987Z,98453.25
2022-10-25T17:31:32.647Z,98454.06
2022-10-25T17:34:00.797Z,98452.81
2022-10-25T17:36:32.341Z,98452.97
2022-10-25T17:39:00.331Z,98451.94
2022-10-25T17:41:27.282Z,98449.47
2022-10-25T17:43:56.077Z,98443.78
2022-10-25T17:46:29.072Z,98442.84
2022-10-25T17:49:02.983Z,98444.38
2022-10-25T17:51:32.153Z,98452.13
2022-10-25T17:53:59.079Z,98449.13
2022-10-25T17:56:27.599Z,98448.53
2022-10-25T17:58:55.370Z,98455.81
2022-10-25T18:01:26.944Z,98462.19
2022-10-25T18:03:55.044Z,98463.22
2022-10-25T18:06:25.407Z,98460.91
2022-10-25T18:08:54.936Z,98459.13
2022-10-25T18:11:24.287Z,98461.41
2022-10-25T18:13:54.339Z,98455.56
2022-10-25T18:16:27.467Z,98458.31
2022-10-25T18:18:57.480Z,98459.66
2022-10-25T18:21:25.035Z,98462.91
2022-10-25T18:23:56.890Z,98472.06
2022-10-25T18:26:25.162Z,98481.81
2022-10-25T18:28:52.466Z,98468.69
2022-10-25T18:31:20.885Z,98467.22
2022-10-25T18:33:48.300Z,98473.34
2022-10-25T18:36:19.202Z,98468.84
2022-10-25T18:38:50.417Z,98460.94
2022-10-25T18:41:25.193Z,98452.44
2022-10-25T18:43:52.243Z,98453.91
2022-10-25T18:46:19.182Z,98453.81
2022-10-25T18:48:54.251Z,98449.31
2022-10-25T18:51:23.925Z,98448.09
2022-10-25T18:53:55.697Z,98444.94
2022-10-25T18:56:23.250Z,98447.69
2022-10-25T18:58:50.864Z,98458.47
2022-10-25T19:01:22.875Z,98458.88
2022-10-25T19:03:51.068Z,98458.28
2022-10-25T19:06:19.049Z,98452.88
2022-10-25T19:08:46.038Z,98453.22
2022-10-25T19:11:14.226Z,98451.63
2022-10-25T19:13:41.414Z,98452.84
2022-10-25T19:16:09.548Z,98456.31
2022-10-25T19:18:37.524Z,98455.56
2022-10-25T19:21:12.058Z,98456.72
2022-10-25T19:23:41.419Z,98446.44
2022-10-25T19:26:13.142Z,98437.41
2022-10-25T19:28:40.091Z,98443.34
2022-10-25T19:31:12.618Z,98439.38
2022-10-25T19:33:40.126Z,98442.13
2022-10-25T19:36:10.401Z,98437.66
2022-10-25T19:38:38.960Z,98440.56
2022-10-25T19:41:09.910Z,98442.03
2022-10-25T19:43:36.934Z,98431.78
2022-10-25T19:46:06.959Z,98440.09
2022-10-25T19:48:35.031Z,98436.72
2022-10-25T19:51:17.528Z,98437.78
2022-10-25T19:53:45.265Z,98438.53
2022-10-25T19:56:15.950Z,98439.38
2022-10-25T19:58:43.655Z,98443.91
2022-10-25T20:01:20.691Z,98439.69
2022-10-25T20:03:51.293Z,98427.00
2022-10-25T20:06:24.602Z,98439.75
2022-10-25T20:08:53.186Z,98432.16
2022-10-25T20:11:21.044Z,98430.81
2022-10-25T20:13:48.074Z,98438.41
2022-10-25T20:16:15.193Z,98423.16
2022-10-25T20:18:43.019Z,98425.91
2022-10-25T20:21:16.580Z,98432.28
2022-10-25T20:23:49.329Z,98432.28
2022-10-25T20:26:26.635Z,98427.34
2022-10-25T20:28:55.930Z,98430.34
2022-10-25T20:31:24.056Z,98432.50
2022-10-25T20:33:52.219Z,98433.34
2022-10-25T20:36:19.737Z,98432.78
2022-10-25T20:38:47.317Z,98431.09
2022-10-25T20:41:21.381Z,98433.22
2022-10-25T20:43:52.196Z,98427.25
2022-10-25T20:46:20.713Z,98424.84
2022-10-25T20:48:47.903Z,98431.09
2022-10-25T20:51:15.806Z,98435.53
2022-10-25T20:53:46.464Z,98426.88
2022-10-25T20:56:14.937Z,98427.09
2022-10-25T20:58:42.870Z,98423.22
2022-10-25T21:01:10.713Z,98421.56
2022-10-25T21:03:39.081Z,98423.16
2022-10-25T21:06:10.458Z,98425.44
2022-10-25T21:08:38.166Z,98422.91
2022-10-25T21:11:09.352Z,98416.50
2022-10-25T21:13:37.293Z,98417.72
2022-10-25T21:16:10.103Z,98417.00
2022-10-25T21:18:37.847Z,98409.66
2022-10-25T21:21:13.142Z,98414.81
2022-10-25T21:23:40.097Z,98418.91
2022-10-25T21:26:08.081Z,98411.97
2022-10-25T21:28:38.510Z,98415.56
2022-10-25T21:31:09.245Z,98402.72
2022-10-25T21:33:36.676Z,98402.81
2022-10-25T21:36:10.082Z,98403.19
2022-10-25T21:38:37.454Z,98392.25
2022-10-25T21:41:13.641Z,98393.81
2022-10-25T21:43:47.776Z,98395.97
2022-10-25T21:46:17.210Z,98386.16
2022-10-25T21:48:47.203Z,98398.09
2022-10-25T21:51:14.992Z,98392.00
2022-10-25T21:53:42.302Z,98400.53
2022-10-25T21:56:15.898Z,98403.38
2022-10-25T21:58:45.309Z,98390.47
2022-10-25T22:01:28.668Z,98384.59
2022-10-25T22:03:56.156Z,98386.47
2022-10-25T22:06:25.212Z,98397.16
2022-10-25T22:08:55.254Z,98390.19
2022-10-25T22:11:29.529Z,98391.41
2022-10-25T22:13:59.589Z,98396.78
2022-10-25T22:16:27.483Z,98395.22
2022-10-25T22:19:00.621Z,98389.25
2022-10-25T22:21:39.265Z,98369.22
2022-10-25T22:24:08.445Z,98358.97
2022-10-25T22:26:38.085Z,98370.13
2022-10-25T22:29:05.176Z,98374.78
2022-10-25T22:31:33.457Z,98375.72
2022-10-25T22:34:03.435Z,98365.34
2022-10-25T22:36:34.982Z,98358.38
2022-10-25T22:39:03.165Z,98362.75
2022-10-25T22:41:31.210Z,98383.59
2022-10-25T22:43:59.147Z,98390.00
2022-10-25T22:46:32.884Z,98380.63
2022-10-25T22:49:05.881Z,98378.69
2022-10-25T22:51:33.078Z,98377.03
2022-10-25T22:54:00.214Z,98371.84
2022-10-25T22:56:30.122Z,98354.38
2022-10-25T22:59:00.823Z,98352.16
2022-10-25T23:01:34.305Z,98352.88
2022-10-25T23:04:04.294Z,98357.19
2022-10-25T23:06:37.352Z,98356.97
2022-10-25T23:09:09.129Z,98360.28
2022-10-25T23:11:39.074Z,98336.84
2022-10-25T23:14:13.092Z,98332.81
2022-10-25T23:16:43.417Z,98353.72
2022-10-25T23:19:10.315Z,98355.38
2022-10-25T23:21:37.550Z,98359.84
2022-10-25T23:24:04.994Z,98352.88
2022-10-25T23:26:36.277Z,98356.72
2022-10-25T23:29:04.101Z,98349.00
2022-10-25T23:31:31.823Z,98336.94
2022-10-25T23:34:00.497Z,98327.56
2022-10-25T23:36:37.177Z,98326.16
2022-10-25T23:39:06.414Z,98326.16
2022-10-25T23:41:33.591Z,98324.50
2022-10-25T23:44:00.648Z,98323.28
2022-10-25T23:46:27.549Z,98336.88
2022-10-25T23:48:54.529Z,98351.66
2022-10-25T23:51:21.581Z,98359.00
2022-10-25T23:53:48.840Z,98362.63
2022-10-25T23:56:15.999Z,98366.97
2022-10-25T23:58:42.957Z,98353.16
